Terminal Aerodrome Forecast
Issued by NWS Sterling, VA

Current Version | Previous Version | Graphics & Text | Print | Product List | Glossary On
Versions: 1 2 3 4 5 6 7 8 9 10 11 12 13 14 15 16 17 18 19 20 21 22 23 24
000
FTUS41 KLWX 031457 AAA
TAFIAD
TAF AMD
KIAD 031457Z 0315/0418 32008KT P6SM SCT060
     FM032000 32008KT P6SM BKN060
     FM040000 34004KT P6SM BKN060
     FM041500 04005KT P6SM BKN050=

USA.gov is the U.S. government's official web portal to all federal, state and local government web resources and services.